createdAt,value
2023-03-16T00:04:31.520Z,101812.25
2023-03-16T00:09:33.693Z,101813.28
2023-03-16T00:14:35.688Z,101820.09
2023-03-16T00:19:37.173Z,101816.22
2023-03-16T00:24:38.795Z,101806.88
2023-03-16T00:29:55.613Z,101817.50
2023-03-16T00:34:57.851Z,101806.97
2023-03-16T00:39:59.808Z,101811.47
2023-03-16T00:45:01.614Z,101805.03
2023-03-16T00:50:03.333Z,101794.03
2023-03-16T00:55:05.165Z,101795.84
2023-03-16T01:00:12.868Z,101793.00
2023-03-16T01:05:15.215Z,101797.25
2023-03-16T01:10:17.470Z,101792.00
2023-03-16T01:15:19.161Z,101782.88
2023-03-16T01:20:20.864Z,101790.22
2023-03-16T01:25:22.452Z,101772.78
2023-03-16T01:30:24.139Z,101769.16
2023-03-16T01:35:25.815Z,101766.81
2023-03-16T01:40:27.811Z,101759.34
2023-03-16T01:45:57.599Z,101752.91
2023-03-16T01:51:00.189Z,101743.53
2023-03-16T01:56:05.926Z,101741.50
2023-03-16T02:01:08.137Z,101730.56
2023-03-16T02:06:19.001Z,101711.25
2023-03-16T02:11:26.366Z,101711.75
2023-03-16T02:16:35.253Z,101697.13
2023-03-16T02:22:06.306Z,101702.91
2023-03-16T02:27:12.831Z,101700.88
2023-03-16T02:32:15.261Z,101697.06
2023-03-16T02:37:16.808Z,101692.56
2023-03-16T02:42:22.835Z,101689.88
2023-03-16T02:47:44.645Z,101691.63
2023-03-16T02:52:48.445Z,101688.75
2023-03-16T02:57:52.200Z,101709.03
2023-03-16T03:02:54.396Z,101696.94
2023-03-16T03:07:56.078Z,101696.94
2023-03-16T03:12:58.794Z,101689.63
2023-03-16T03:18:00.818Z,101686.25
2023-03-16T03:23:05.472Z,101691.41
2023-03-16T03:28:07.033Z,101686.63
2023-03-16T03:33:08.980Z,101680.47
2023-03-16T03:38:11.441Z,101693.09
2023-03-16T03:43:13.202Z,101688.03
2023-03-16T03:48:17.590Z,101694.53
2023-03-16T03:53:20.335Z,101690.94
2023-03-16T03:58:50.069Z,101691.84
2023-03-16T04:04:00.870Z,101694.22
2023-03-16T04:09:03.040Z,101683.25
2023-03-16T04:14:05.815Z,101676.00
2023-03-16T04:19:07.930Z,101679.03
2023-03-16T04:24:10.042Z,101667.66
2023-03-16T04:29:14.302Z,101670.69
2023-03-16T04:34:16.039Z,101674.75
2023-03-16T04:39:18.717Z,101653.84
2023-03-16T04:44:20.562Z,101644.13
2023-03-16T04:49:24.780Z,101646.38
2023-03-16T04:54:26.351Z,101635.75
2023-03-16T04:59:27.923Z,101622.22
2023-03-16T05:04:37.837Z,101622.66
2023-03-16T05:09:40.234Z,101616.19
2023-03-16T05:14:41.964Z,101619.19
2023-03-16T05:19:58.424Z,101623.31
2023-03-16T05:25:03.290Z,101610.56
2023-03-16T05:30:05.522Z,101615.28
2023-03-16T05:35:13.225Z,101610.00
2023-03-16T05:40:18.721Z,101605.97
2023-03-16T05:45:28.585Z,101604.53
2023-03-16T05:50:52.498Z,101611.69
2023-03-16T05:56:01.150Z,101604.41
2023-03-16T06:01:04.863Z,101598.66
2023-03-16T06:06:08.770Z,101590.78
2023-03-16T06:11:21.965Z,101602.09
2023-03-16T06:16:24.181Z,101607.19
2023-03-16T06:21:25.956Z,101602.50
2023-03-16T06:26:30.003Z,101605.91
2023-03-16T06:31:34.016Z,101604.94
2023-03-16T06:36:39.793Z,101606.06
2023-03-16T06:41:45.345Z,101614.53
2023-03-16T06:46:49.681Z,101616.75
2023-03-16T06:51:51.399Z,101619.19
2023-03-16T06:56:53.888Z,101619.78
2023-03-16T07:01:56.632Z,101617.94
2023-03-16T07:06:58.191Z,101627.28
2023-03-16T07:11:59.857Z,101619.53
2023-03-16T07:17:01.852Z,101622.94
2023-03-16T07:22:04.320Z,101621.84
2023-03-16T07:27:12.375Z,101620.03
2023-03-16T07:32:14.800Z,101612.38
2023-03-16T07:37:18.398Z,101616.47
2023-03-16T07:42:23.769Z,101606.09
2023-03-16T07:47:38.619Z,101619.59
2023-03-16T07:52:57.713Z,101617.41
2023-03-16T07:57:59.377Z,101622.16
2023-03-16T08:03:06.968Z,101633.06
2023-03-16T08:08:09.584Z,101632.66
2023-03-16T08:13:12.498Z,101634.09
2023-03-16T08:18:17.064Z,101634.97
2023-03-16T08:23:19.681Z,101629.44
2023-03-16T08:28:25.809Z,101632.69
2023-03-16T08:33:29.192Z,101627.06
2023-03-16T08:38:30.926Z,101618.16
2023-03-16T08:43:37.541Z,101621.72
2023-03-16T08:48:46.906Z,101626.53
2023-03-16T08:53:49.841Z,101626.53
2023-03-16T08:58:52.201Z,101610.28
2023-03-16T09:03:54.925Z,101615.63
2023-03-16T09:08:57.528Z,101614.59
2023-03-16T09:14:00.361Z,101613.44
2023-03-16T09:19:05.919Z,101614.25
2023-03-16T09:24:09.075Z,101603.19
2023-03-16T09:29:10.685Z,101609.84
2023-03-16T09:34:12.787Z,101607.66
2023-03-16T09:39:15.408Z,101599.78
2023-03-16T09:44:33.843Z,101598.97
2023-03-16T09:49:40.709Z,101593.75
2023-03-16T09:54:50.940Z,101591.50
2023-03-16T09:59:53.165Z,101600.22
2023-03-16T10:05:15.468Z,101599.66
2023-03-16T10:10:49.338Z,101596.69
2023-03-16T10:15:53.724Z,101586.75
2023-03-16T10:20:58.692Z,101583.66
2023-03-16T10:26:05.251Z,101582.25
2023-03-16T10:31:07.046Z,101589.03
2023-03-16T10:36:15.830Z,101582.19
2023-03-16T10:41:21.326Z,101582.25
2023-03-16T10:46:27.975Z,101572.22
2023-03-16T10:51:33.292Z,101569.75
2023-03-16T10:56:36.078Z,101558.16
2023-03-16T11:01:37.679Z,101554.59
2023-03-16T11:06:57.181Z,101571.03
2023-03-16T11:12:00.242Z,101567.19
2023-03-16T11:17:12.868Z,101562.25
2023-03-16T11:22:17.779Z,101542.31
2023-03-16T11:27:37.720Z,101535.69
2023-03-16T11:32:42.276Z,101522.78
2023-03-16T11:38:09.416Z,101519.75
2023-03-16T11:43:32.829Z,101515.25
2023-03-16T11:48:42.718Z,101496.03
2023-03-16T11:53:47.908Z,101508.31
2023-03-16T11:58:56.172Z,101508.75
2023-03-16T12:04:12.969Z,101503.53
2023-03-16T12:09:47.543Z,101497.03
2023-03-16T12:15:18.861Z,101500.44
2023-03-16T12:20:29.347Z,101484.78
2023-03-16T12:25:38.095Z,101484.88
2023-03-16T12:30:53.350Z,101488.41
2023-03-16T12:36:19.279Z,101474.63
2023-03-16T12:41:44.981Z,101456.94
2023-03-16T12:47:03.623Z,101456.56
2023-03-16T12:52:14.501Z,101455.09
2023-03-16T12:57:17.258Z,101447.16
2023-03-16T13:02:25.166Z,101455.63
2023-03-16T13:07:31.013Z,101442.91
2023-03-16T13:12:37.162Z,101449.56
2023-03-16T13:17:39.325Z,101453.94
2023-03-16T13:22:50.010Z,101449.00
2023-03-16T13:27:58.200Z,101451.59
2023-03-16T13:33:06.575Z,101430.94
2023-03-16T13:38:16.630Z,101425.47
2023-03-16T13:43:30.573Z,101402.88
2023-03-16T13:48:39.071Z,101373.97
2023-03-16T13:53:51.342Z,101360.59
2023-03-16T14:10:26.917Z,101327.03
2023-03-16T14:21:24.833Z,101311.50
2023-03-16T14:27:24.671Z,101307.72
2023-03-16T14:38:45.367Z,101270.06
2023-03-16T14:44:23.175Z,101263.56
2023-03-16T14:49:51.663Z,101251.19
2023-03-16T14:55:45.415Z,101244.13
2023-03-16T15:01:47.939Z,101232.56
2023-03-16T15:14:19.330Z,101210.06
2023-03-16T15:25:05.263Z,101207.81
2023-03-16T15:30:46.013Z,101198.25
2023-03-16T15:37:28.119Z,101217.22
2023-03-16T15:43:08.827Z,101215.91
2023-03-16T15:54:56.586Z,101202.19
2023-03-16T16:05:35.484Z,101181.09
2023-03-16T16:11:22.853Z,101180.16
2023-03-16T16:16:47.989Z,101172.22
2023-03-16T16:21:54.252Z,101158.94
2023-03-16T16:27:02.057Z,101162.94
2023-03-16T16:32:09.475Z,101163.59
2023-03-16T16:37:11.328Z,101155.63
2023-03-16T16:42:17.675Z,101152.78
2023-03-16T16:47:23.404Z,101147.34
2023-03-16T16:52:28.975Z,101142.84
2023-03-16T16:57:31.754Z,101148.88
2023-03-16T17:02:44.559Z,101151.38
2023-03-16T17:07:46.896Z,101145.19
2023-03-16T17:12:50.754Z,101152.72
2023-03-16T17:18:13.997Z,101136.78
2023-03-16T17:23:34.514Z,101134.81
2023-03-16T17:28:39.647Z,101118.75
2023-03-16T17:33:41.329Z,101121.75
2023-03-16T17:38:43.831Z,101128.34
2023-03-16T17:43:49.140Z,101125.75
2023-03-16T17:48:53.001Z,101120.25
2023-03-16T17:53:55.684Z,101121.69
2023-03-16T17:58:57.585Z,101126.53
2023-03-16T18:04:00.644Z,101122.94
2023-03-16T18:09:02.362Z,101118.00
2023-03-16T18:14:08.643Z,101120.41
2023-03-16T18:19:24.453Z,101116.88
2023-03-16T18:24:28.187Z,101129.63
2023-03-16T18:29:30.367Z,101126.16
2023-03-16T18:34:40.736Z,101128.31
2023-03-16T18:39:42.805Z,101131.41
2023-03-16T18:44:44.610Z,101129.63
2023-03-16T18:49:49.428Z,101131.28
2023-03-16T18:54:51.844Z,101123.47
2023-03-16T18:59:54.420Z,101112.09
2023-03-16T19:04:58.908Z,101104.16
2023-03-16T19:10:18.587Z,101100.72
2023-03-16T19:15:29.070Z,101092.13
2023-03-16T19:20:32.929Z,101091.25
2023-03-16T19:25:38.565Z,101077.53
2023-03-16T19:30:40.516Z,101081.28
2023-03-16T19:35:51.576Z,101056.00
2023-03-16T19:40:59.956Z,101065.75
2023-03-16T19:46:01.775Z,101053.81
2023-03-16T19:51:04.360Z,101047.69
2023-03-16T19:56:10.142Z,101041.66
2023-03-16T20:01:21.597Z,101033.94
2023-03-16T20:06:24.306Z,101021.00
2023-03-16T20:11:31.556Z,101009.69
2023-03-16T20:16:35.888Z,101017.56
2023-03-16T20:21:37.640Z,101008.13
2023-03-16T20:26:39.375Z,101013.50
2023-03-16T20:31:41.760Z,101003.00
2023-03-16T20:36:43.454Z,101003.81
2023-03-16T20:41:45.570Z,101000.38
2023-03-16T20:46:47.648Z,100981.56
2023-03-16T20:51:51.380Z,100972.94
2023-03-16T20:56:57.981Z,100977.75
2023-03-16T21:02:01.044Z,100962.03
2023-03-16T21:07:06.280Z,100950.66
2023-03-16T21:12:22.407Z,100945.38
2023-03-16T21:17:30.782Z,100935.41
2023-03-16T21:22:34.875Z,100941.25
2023-03-16T21:27:37.517Z,100930.56
2023-03-16T21:32:39.215Z,100912.06
2023-03-16T21:37:41.044Z,100912.69
2023-03-16T21:42:42.721Z,100914.69
2023-03-16T21:47:45.769Z,100929.06
2023-03-16T21:52:48.508Z,100940.13
2023-03-16T21:57:50.818Z,100944.94
2023-03-16T22:02:54.598Z,100941.41
2023-03-16T22:07:58.077Z,100935.25
2023-03-16T22:13:00.130Z,100917.91
2023-03-16T22:18:08.475Z,100907.53
2023-03-16T22:23:27.594Z,100898.66
2023-03-16T22:28:32.858Z,100907.41
2023-03-16T22:33:37.684Z,100897.72
2023-03-16T22:38:40.112Z,100898.28
2023-03-16T22:43:44.574Z,100902.53
2023-03-16T22:48:46.607Z,100893.09
2023-03-16T22:53:52.822Z,100884.38
2023-03-16T22:59:00.825Z,100887.03
2023-03-16T23:04:02.556Z,100875.72
2023-03-16T23:09:04.845Z,100865.34
2023-03-16T23:14:14.131Z,100866.38
2023-03-16T23:19:25.046Z,100873.13
2023-03-16T23:24:26.804Z,100867.00
2023-03-16T23:29:28.814Z,100858.34
2023-03-16T23:34:30.465Z,100862.69
2023-03-16T23:39:32.419Z,100876.38
2023-03-16T23:44:34.139Z,100880.66
2023-03-16T23:49:38.593Z,100875.34
2023-03-16T23:54:40.518Z,100869.16
2023-03-16T23:59:42.237Z,100862.06
